Grenola, Kansas
Current Conditions -  °F | °C
As of 5:54 PM on Friday 28 Nov 2014 (Local Time) from KWLD Reporting Station
Clear Clear  
Wind Chill: 55°   Ceiling: Unl
Heat Index: 55°   Visibility: 10mi
Dew Point: 39°   Wind: 10mph
Humidity: 55%   Direction: 200°SSW
Pressure: 29.85"   Gusts: NA
Location:  37.35°N, 96.45°W
Report Text: KWLD 282354Z AUTO 20009KT 10SM CLR 13/04 A2985 RMK AO2 SLP109 T01280039 10178 20128 55004
Loading
Personal Weather Stations






























Interactive Weather Map New forecast layout! Learn more

10-Day Weather Forecast

Advertisements
Track Severe Weather on mobile